createdAt,value
2023-09-16T00:02:18.970Z,78.54
2023-09-16T00:05:05.713Z,78.98
2023-09-16T00:07:50.786Z,79.34
2023-09-16T00:10:36.384Z,79.13
2023-09-16T00:13:21.724Z,79.03
2023-09-16T00:16:07.827Z,79.48
2023-09-16T00:18:53.321Z,79.75
2023-09-16T00:21:40.677Z,79.71
2023-09-16T00:24:25.862Z,79.89
2023-09-16T00:27:11.170Z,79.88
2023-09-16T00:29:56.513Z,80.24
2023-09-16T00:32:41.958Z,80.67
2023-09-16T00:35:27.314Z,80.78
2023-09-16T00:38:16.774Z,81.13
2023-09-16T00:41:02.211Z,80.80
2023-09-16T00:43:47.524Z,81.01
2023-09-16T00:46:32.994Z,81.18
2023-09-16T00:49:18.438Z,81.34
2023-09-16T00:52:04.392Z,82.01
2023-09-16T00:54:53.220Z,82.69
2023-09-16T00:57:40.896Z,82.40
2023-09-16T01:00:27.932Z,82.56
2023-09-16T01:03:15.616Z,82.78
2023-09-16T01:06:01.512Z,82.42
2023-09-16T01:08:48.003Z,82.74
2023-09-16T01:11:33.384Z,82.94
2023-09-16T01:14:18.836Z,82.83
2023-09-16T01:17:09.725Z,82.50
2023-09-16T01:20:07.794Z,82.27
2023-09-16T01:22:53.182Z,82.45
2023-09-16T01:25:38.664Z,82.78
2023-09-16T01:28:26.211Z,82.76
2023-09-16T01:31:11.685Z,82.52
2023-09-16T01:33:58.270Z,82.64
2023-09-16T01:36:48.103Z,82.49
2023-09-16T01:39:34.564Z,82.31
2023-09-16T01:42:21.777Z,82.45
2023-09-16T01:45:08.382Z,82.76
2023-09-16T01:47:53.732Z,82.87
2023-09-16T01:50:39.014Z,83.32
2023-09-16T01:53:24.523Z,83.37
2023-09-16T01:56:09.796Z,83.43
2023-09-16T01:58:55.022Z,83.60
2023-09-16T02:01:40.483Z,83.65
2023-09-16T02:04:26.009Z,83.47
2023-09-16T02:07:12.593Z,83.76
2023-09-16T02:09:58.116Z,84.22
2023-09-16T02:12:43.612Z,84.18
2023-09-16T02:15:29.020Z,84.58
2023-09-16T02:18:14.462Z,84.73
2023-09-16T02:21:00.014Z,84.36
2023-09-16T02:23:45.386Z,84.95
2023-09-16T02:26:30.707Z,84.70
2023-09-16T02:29:16.065Z,84.88
2023-09-16T02:32:01.603Z,85.03
2023-09-16T02:34:47.256Z,85.04
2023-09-16T02:37:32.490Z,84.82
2023-09-16T02:40:18.338Z,85.11
2023-09-16T02:43:03.521Z,85.04
2023-09-16T02:45:48.928Z,84.75
2023-09-16T02:48:34.334Z,85.31
2023-09-16T02:51:19.778Z,85.48
2023-09-16T02:54:07.457Z,85.48
2023-09-16T02:56:53.091Z,85.37
2023-09-16T02:59:38.470Z,85.56
2023-09-16T03:02:23.896Z,85.45
2023-09-16T03:05:09.301Z,85.69
2023-09-16T03:07:54.607Z,86.17
2023-09-16T03:10:40.200Z,86.48
2023-09-16T03:13:25.369Z,86.52
2023-09-16T03:16:17.490Z,87.03
2023-09-16T03:19:03.091Z,86.72
2023-09-16T03:21:48.568Z,86.93
2023-09-16T03:24:33.988Z,86.81
2023-09-16T03:27:19.327Z,86.63
2023-09-16T03:30:05.751Z,86.38
2023-09-16T03:32:51.369Z,86.22
2023-09-16T03:35:37.698Z,86.01
2023-09-16T03:38:25.155Z,86.13
2023-09-16T03:41:10.584Z,85.81
2023-09-16T03:43:56.032Z,85.71
2023-09-16T03:46:41.588Z,85.93
2023-09-16T03:49:26.985Z,86.01
2023-09-16T03:52:12.627Z,86.00
2023-09-16T03:54:58.024Z,86.53
2023-09-16T03:57:43.352Z,85.88
2023-09-16T04:00:29.539Z,85.84
2023-09-16T04:03:14.932Z,86.02
2023-09-16T04:06:00.237Z,86.08
2023-09-16T04:08:45.313Z,85.90
2023-09-16T04:11:30.706Z,85.05
2023-09-16T04:14:16.077Z,84.86
2023-09-16T04:17:01.517Z,84.82
2023-09-16T04:19:46.987Z,84.66
2023-09-16T04:22:32.201Z,84.92
2023-09-16T04:25:17.556Z,84.54
2023-09-16T04:28:04.771Z,84.34
2023-09-16T04:30:51.560Z,84.91
2023-09-16T04:33:39.236Z,84.78
2023-09-16T04:36:24.906Z,84.79
2023-09-16T04:39:10.282Z,84.90
2023-09-16T04:41:56.193Z,84.80
2023-09-16T04:44:41.352Z,84.27
2023-09-16T04:47:27.578Z,84.59
2023-09-16T04:50:13.515Z,84.26
2023-09-16T04:52:59.814Z,84.54
2023-09-16T04:55:45.023Z,84.52
2023-09-16T04:58:30.340Z,84.85
2023-09-16T05:01:15.853Z,85.40
2023-09-16T05:04:01.273Z,85.53
2023-09-16T05:06:46.434Z,85.37
2023-09-16T05:09:32.216Z,85.04
2023-09-16T05:12:17.304Z,85.20
2023-09-16T05:15:03.084Z,85.54
2023-09-16T05:17:48.450Z,86.23
2023-09-16T05:20:33.821Z,85.95
2023-09-16T05:23:19.670Z,86.24
2023-09-16T05:26:05.983Z,85.77
2023-09-16T05:28:51.924Z,85.41
2023-09-16T05:31:37.059Z,85.74
2023-09-16T05:34:22.269Z,85.83
2023-09-16T05:37:07.753Z,85.61
2023-09-16T05:39:53.143Z,85.68
2023-09-16T05:42:38.530Z,86.02
2023-09-16T05:45:24.224Z,85.94
2023-09-16T05:48:09.699Z,86.20
2023-09-16T05:50:59.283Z,86.01
2023-09-16T05:53:44.640Z,86.09
2023-09-16T05:56:29.992Z,86.23
2023-09-16T05:59:16.264Z,86.88
2023-09-16T06:02:01.374Z,87.47
2023-09-16T06:04:46.796Z,87.13
2023-09-16T06:07:32.173Z,87.07
2023-09-16T06:10:17.731Z,87.30
2023-09-16T06:13:03.326Z,88.11
2023-09-16T06:15:48.905Z,88.71
2023-09-16T06:18:36.004Z,88.97
2023-09-16T06:21:21.563Z,88.64
2023-09-16T06:24:06.890Z,88.32
2023-09-16T06:26:52.880Z,89.00
2023-09-16T06:29:38.258Z,89.36
2023-09-16T06:32:24.087Z,89.26
2023-09-16T06:35:09.589Z,89.36
2023-09-16T06:37:54.931Z,89.07
2023-09-16T06:40:40.498Z,90.16
2023-09-16T06:43:25.611Z,90.46
2023-09-16T06:46:11.116Z,90.96
2023-09-16T06:48:56.453Z,91.27
2023-09-16T06:51:42.003Z,91.88
2023-09-16T06:54:27.773Z,91.64
2023-09-16T06:57:13.088Z,92.19
2023-09-16T06:59:58.736Z,91.89
2023-09-16T07:02:44.020Z,92.17
2023-09-16T07:05:32.799Z,92.52
2023-09-16T07:08:19.834Z,92.29
2023-09-16T07:11:04.840Z,92.21
2023-09-16T07:13:50.216Z,93.12
2023-09-16T07:16:41.984Z,93.17
2023-09-16T07:19:27.792Z,93.01
2023-09-16T07:22:13.170Z,93.86
2023-09-16T07:24:59.249Z,93.75
2023-09-16T07:27:44.888Z,93.81
2023-09-16T07:30:30.102Z,93.97
2023-09-16T07:33:15.980Z,93.69
2023-09-16T07:36:01.217Z,93.23
2023-09-16T07:38:46.577Z,94.31
2023-09-16T07:41:31.924Z,93.93
2023-09-16T07:44:17.557Z,93.89
2023-09-16T07:47:02.711Z,93.77
2023-09-16T07:49:48.360Z,93.97
2023-09-16T07:52:33.594Z,94.22
2023-09-16T07:55:19.083Z,93.91
2023-09-16T07:58:04.753Z,94.28
2023-09-16T08:00:50.857Z,94.29
2023-09-16T08:03:38.691Z,93.78
2023-09-16T08:06:24.596Z,93.62
2023-09-16T08:09:10.147Z,92.89
2023-09-16T08:11:55.432Z,93.08
2023-09-16T08:14:40.765Z,93.03
2023-09-16T08:17:26.172Z,92.98
2023-09-16T08:20:11.965Z,92.99
2023-09-16T08:22:57.895Z,93.03
2023-09-16T08:25:42.994Z,92.87
2023-09-16T08:28:28.615Z,92.77
2023-09-16T08:31:14.130Z,92.64
2023-09-16T08:34:03.091Z,91.87
2023-09-16T08:36:48.573Z,92.03
2023-09-16T08:39:33.537Z,91.36
2023-09-16T08:42:21.829Z,91.69
2023-09-16T08:45:14.390Z,91.92
2023-09-16T08:48:04.042Z,92.04
2023-09-16T08:50:52.572Z,91.49
2023-09-16T08:53:39.600Z,90.77
2023-09-16T08:56:26.727Z,90.67
2023-09-16T08:59:13.083Z,90.50
2023-09-16T09:01:58.583Z,90.13
2023-09-16T09:04:44.362Z,90.82
2023-09-16T09:07:31.059Z,91.04
2023-09-16T09:10:16.433Z,90.54
2023-09-16T09:13:01.908Z,89.75
2023-09-16T09:15:49.406Z,89.50
2023-09-16T09:18:36.615Z,89.50
2023-09-16T09:21:22.032Z,89.90
2023-09-16T09:24:07.152Z,89.33
2023-09-16T09:26:52.417Z,88.51
2023-09-16T09:29:37.893Z,88.32
2023-09-16T09:32:23.271Z,88.41
2023-09-16T09:35:09.570Z,88.24
2023-09-16T09:37:54.986Z,88.53
2023-09-16T09:40:40.428Z,86.75
2023-09-16T09:43:30.164Z,86.48
2023-09-16T09:46:15.639Z,86.53
2023-09-16T09:49:01.233Z,85.99
2023-09-16T09:51:49.587Z,85.86
2023-09-16T09:54:35.460Z,86.30
2023-09-16T09:57:21.216Z,86.94
2023-09-16T10:00:07.872Z,85.95
2023-09-16T10:02:53.812Z,84.67
2023-09-16T10:05:39.296Z,84.84
2023-09-16T10:08:25.993Z,85.26
2023-09-16T10:11:11.864Z,85.22
2023-09-16T10:13:57.080Z,84.88
2023-09-16T10:16:42.706Z,84.80
2023-09-16T10:19:28.731Z,84.39
2023-09-16T10:22:15.446Z,84.53
2023-09-16T10:25:00.597Z,84.25
2023-09-16T10:27:49.483Z,84.37
2023-09-16T10:30:37.183Z,84.37
2023-09-16T10:33:23.349Z,82.12
2023-09-16T10:36:10.302Z,80.66
2023-09-16T10:38:56.015Z,80.97
2023-09-16T10:41:42.531Z,81.03
2023-09-16T10:44:30.128Z,81.57
2023-09-16T10:47:17.836Z,81.12
2023-09-16T10:50:03.035Z,80.70
2023-09-16T10:53:06.917Z,80.51
2023-09-16T10:56:12.045Z,80.59
2023-09-16T10:59:02.737Z,78.88
2023-09-16T11:01:59.286Z,78.18
2023-09-16T11:04:44.741Z,78.50
2023-09-16T11:07:31.097Z,77.79
2023-09-16T11:10:17.237Z,77.40
2023-09-16T11:13:03.449Z,78.48
2023-09-16T11:15:48.620Z,77.23
2023-09-16T11:18:40.406Z,77.64
2023-09-16T11:21:26.699Z,75.33
2023-09-16T11:24:12.698Z,74.89
2023-09-16T11:27:01.125Z,75.62
2023-09-16T11:29:51.231Z,75.63
2023-09-16T11:32:36.868Z,74.13
2023-09-16T11:35:22.270Z,74.60
2023-09-16T11:38:07.545Z,75.25
2023-09-16T11:40:53.569Z,74.54
2023-09-16T11:43:40.386Z,73.90
2023-09-16T11:46:26.957Z,74.82
2023-09-16T11:49:13.759Z,73.68
2023-09-16T11:51:59.266Z,74.27
2023-09-16T11:54:48.200Z,74.58
2023-09-16T11:57:33.677Z,72.69
2023-09-16T12:00:19.299Z,73.78
2023-09-16T12:03:06.454Z,72.76
2023-09-16T12:05:52.058Z,73.57
2023-09-16T12:08:41.014Z,74.22
2023-09-16T12:11:28.082Z,74.35
2023-09-16T12:14:13.801Z,73.25
2023-09-16T12:16:59.103Z,73.43
2023-09-16T12:19:55.991Z,74.07
2023-09-16T12:22:44.538Z,71.06
2023-09-16T12:25:39.553Z,71.91
2023-09-16T12:28:25.219Z,71.40
2023-09-16T12:31:12.618Z,72.24
2023-09-16T12:33:58.164Z,70.81
2023-09-16T12:36:48.476Z,71.34
2023-09-16T12:39:37.538Z,71.83
2023-09-16T12:42:23.098Z,72.16
2023-09-16T12:45:08.582Z,71.85
2023-09-16T12:47:54.813Z,69.61
2023-09-16T12:50:41.755Z,69.62
2023-09-16T12:53:30.785Z,70.98
2023-09-16T12:56:18.682Z,69.95
2023-09-16T12:59:05.970Z,69.58
2023-09-16T13:01:54.566Z,69.53
2023-09-16T13:04:39.852Z,69.85
2023-09-16T13:07:25.289Z,69.96
2023-09-16T13:10:11.486Z,68.94
2023-09-16T13:13:00.635Z,69.63
2023-09-16T13:15:46.961Z,68.94
2023-09-16T13:18:32.513Z,69.51
2023-09-16T13:21:17.693Z,70.08
2023-09-16T13:24:04.017Z,70.49
2023-09-16T13:26:50.920Z,70.76
2023-09-16T13:29:35.958Z,70.04
2023-09-16T13:32:21.421Z,70.07
2023-09-16T13:35:07.529Z,70.44
2023-09-16T13:37:52.608Z,71.43
2023-09-16T13:40:38.830Z,70.87
2023-09-16T13:43:24.013Z,71.58
2023-09-16T13:46:09.308Z,71.46
2023-09-16T13:48:56.310Z,70.26
2023-09-16T13:51:41.993Z,71.15
2023-09-16T13:54:27.288Z,71.69
2023-09-16T13:57:15.407Z,71.81
2023-09-16T14:00:00.855Z,72.20
2023-09-16T14:02:46.369Z,73.07
2023-09-16T14:05:32.102Z,73.08
2023-09-16T14:08:17.438Z,73.77
2023-09-16T14:11:02.647Z,73.86
2023-09-16T14:13:48.074Z,73.50
2023-09-16T14:16:35.352Z,74.49
2023-09-16T14:19:20.900Z,72.88
2023-09-16T14:22:06.095Z,73.38
2023-09-16T14:24:51.384Z,72.03
2023-09-16T14:27:37.366Z,71.95
2023-09-16T14:30:23.728Z,72.08
2023-09-16T14:33:09.065Z,73.23
2023-09-16T14:35:54.566Z,73.17
2023-09-16T14:38:40.216Z,73.61
2023-09-16T14:41:25.360Z,72.75
2023-09-16T14:44:11.992Z,71.68
2023-09-16T14:46:57.434Z,70.94
2023-09-16T14:49:42.969Z,71.42
2023-09-16T14:52:28.342Z,71.62
2023-09-16T14:55:14.361Z,71.73
2023-09-16T14:58:01.274Z,72.63
2023-09-16T15:00:47.612Z,72.57
2023-09-16T15:03:32.904Z,72.44
2023-09-16T15:06:21.277Z,73.06
2023-09-16T15:09:06.577Z,73.46
2023-09-16T15:11:51.978Z,73.30
2023-09-16T15:14:37.231Z,72.63
2023-09-16T15:17:24.792Z,73.09
2023-09-16T15:20:12.283Z,73.34
2023-09-16T15:22:57.884Z,72.77
2023-09-16T15:25:43.209Z,72.83
2023-09-16T15:28:28.581Z,72.54
2023-09-16T15:31:13.935Z,72.12
2023-09-16T15:33:59.287Z,72.47
2023-09-16T15:36:45.746Z,71.96
2023-09-16T15:39:31.224Z,72.12
2023-09-16T15:42:17.040Z,72.45
2023-09-16T15:45:02.400Z,73.58
2023-09-16T15:47:47.634Z,74.15
2023-09-16T15:50:36.057Z,74.76
2023-09-16T15:53:22.019Z,74.77
2023-09-16T15:56:07.527Z,75.28
2023-09-16T15:58:53.079Z,75.56
2023-09-16T16:01:41.108Z,75.92
2023-09-16T16:04:26.533Z,76.36
2023-09-16T16:07:11.819Z,76.19
2023-09-16T16:09:57.372Z,76.34
2023-09-16T16:12:46.187Z,76.67
2023-09-16T16:15:31.640Z,76.63
2023-09-16T16:18:21.085Z,77.06
2023-09-16T16:21:06.755Z,77.33
2023-09-16T16:23:51.974Z,77.42
2023-09-16T16:26:38.676Z,77.39
2023-09-16T16:29:24.078Z,77.47
2023-09-16T16:32:09.431Z,77.39
2023-09-16T16:34:54.817Z,77.39
2023-09-16T16:37:41.065Z,77.64
2023-09-16T16:40:27.166Z,78.40
2023-09-16T16:43:13.665Z,78.11
2023-09-16T16:45:59.228Z,77.92
2023-09-16T16:48:44.527Z,77.87
2023-09-16T16:51:29.861Z,77.78
2023-09-16T16:54:15.411Z,77.57
2023-09-16T16:57:00.634Z,77.40
2023-09-16T16:59:45.992Z,77.85
2023-09-16T17:02:31.730Z,77.61
2023-09-16T17:05:17.024Z,77.59
2023-09-16T17:08:02.467Z,77.35
2023-09-16T17:10:47.939Z,77.95
2023-09-16T17:13:33.349Z,77.79
2023-09-16T17:16:18.950Z,78.26
2023-09-16T17:19:05.010Z,78.72
2023-09-16T17:21:50.294Z,78.42
2023-09-16T17:24:35.992Z,79.36
2023-09-16T17:27:21.247Z,78.90
2023-09-16T17:30:09.655Z,78.70
2023-09-16T17:32:54.970Z,79.20
2023-09-16T17:35:40.837Z,80.21
2023-09-16T17:38:26.107Z,79.72
2023-09-16T17:41:13.562Z,79.65
2023-09-16T17:43:58.785Z,79.29
2023-09-16T17:46:47.712Z,79.51
2023-09-16T17:49:33.398Z,79.22
2023-09-16T17:52:19.121Z,79.21
2023-09-16T17:55:04.732Z,80.37
2023-09-16T17:57:49.906Z,80.08
2023-09-16T18:00:35.487Z,80.02
2023-09-16T18:03:20.873Z,79.88
2023-09-16T18:06:06.746Z,80.30
2023-09-16T18:08:52.545Z,80.40
2023-09-16T18:11:38.240Z,80.23
2023-09-16T18:14:23.822Z,80.23
2023-09-16T18:17:10.382Z,80.15
2023-09-16T18:19:56.389Z,80.25
2023-09-16T18:22:41.657Z,80.30
2023-09-16T18:25:27.000Z,80.39
2023-09-16T18:28:12.159Z,80.19
2023-09-16T18:30:57.618Z,80.18
2023-09-16T18:33:43.569Z,80.24
2023-09-16T18:36:29.561Z,80.49
2023-09-16T18:39:15.389Z,80.30
2023-09-16T18:42:00.618Z,80.32
2023-09-16T18:44:45.725Z,80.33
2023-09-16T18:47:31.363Z,80.44
2023-09-16T18:50:16.771Z,80.47
2023-09-16T18:53:03.117Z,80.66
2023-09-16T18:55:48.645Z,80.74
2023-09-16T18:58:33.998Z,80.95
2023-09-16T19:01:19.532Z,80.90
2023-09-16T19:04:05.674Z,81.24
2023-09-16T19:06:51.366Z,81.12
2023-09-16T19:09:37.423Z,81.04
2023-09-16T19:12:23.796Z,81.03
2023-09-16T19:15:11.648Z,81.11
2023-09-16T19:17:56.891Z,81.27
2023-09-16T19:20:43.717Z,81.48
2023-09-16T19:23:29.069Z,81.30
2023-09-16T19:26:14.639Z,81.69
2023-09-16T19:29:00.037Z,81.86
2023-09-16T19:31:45.214Z,81.85
2023-09-16T19:34:33.127Z,81.79
2023-09-16T19:37:18.255Z,81.79
2023-09-16T19:40:04.646Z,81.72
2023-09-16T19:42:49.893Z,81.49
2023-09-16T19:45:35.263Z,81.69
2023-09-16T19:48:20.389Z,81.90
2023-09-16T19:51:06.194Z,81.78
2023-09-16T20:02:00.097Z,81.84
2023-09-16T20:04:47.640Z,81.67
2023-09-16T20:07:33.258Z,81.62
2023-09-16T20:10:19.234Z,82.02
2023-09-16T20:13:05.084Z,82.36
2023-09-16T20:15:50.919Z,82.33
2023-09-16T20:18:36.076Z,82.68
2023-09-16T20:21:21.429Z,82.48
2023-09-16T20:24:07.151Z,82.54
2023-09-16T20:26:52.733Z,82.69
2023-09-16T20:29:37.943Z,82.75
2023-09-16T20:32:24.063Z,82.46
2023-09-16T20:35:09.346Z,82.28
2023-09-16T20:37:56.822Z,82.52
2023-09-16T20:40:42.585Z,82.48
2023-09-16T20:43:28.016Z,82.36
2023-09-16T20:46:14.840Z,82.43
2023-09-16T20:49:00.470Z,82.37
2023-09-16T20:51:45.685Z,82.69
2023-09-16T20:54:31.154Z,82.47
2023-09-16T20:57:16.659Z,82.68
2023-09-16T21:00:02.010Z,83.07
2023-09-16T21:02:47.521Z,83.58
2023-09-16T21:05:32.804Z,83.35
2023-09-16T21:08:22.405Z,83.05
2023-09-16T21:11:07.848Z,83.18
2023-09-16T21:13:53.534Z,83.10
2023-09-16T21:16:39.386Z,82.90
2023-09-16T21:19:24.836Z,83.05
2023-09-16T21:22:10.312Z,83.06
2023-09-16T21:24:55.513Z,83.06
2023-09-16T21:27:41.052Z,83.25
2023-09-16T21:30:26.573Z,83.41
2023-09-16T21:33:12.119Z,83.30
2023-09-16T21:35:57.815Z,83.57
2023-09-16T21:38:43.181Z,83.29
2023-09-16T21:41:28.530Z,83.51
2023-09-16T21:44:14.102Z,83.57
2023-09-16T21:46:59.691Z,83.52
2023-09-16T21:49:44.967Z,83.54
2023-09-16T21:52:31.110Z,83.58
2023-09-16T21:55:16.790Z,83.64
2023-09-16T21:58:02.290Z,83.68
2023-09-16T22:00:47.854Z,83.90
2023-09-16T22:03:35.873Z,83.85
2023-09-16T22:06:21.212Z,83.92
2023-09-16T22:09:06.580Z,84.26
2023-09-16T22:11:52.078Z,84.58
2023-09-16T22:14:37.440Z,84.11
2023-09-16T22:17:22.729Z,83.92
2023-09-16T22:20:10.765Z,84.03
2023-09-16T22:22:56.606Z,83.98
2023-09-16T22:25:41.993Z,83.92
2023-09-16T22:28:27.397Z,83.77
2023-09-16T22:31:16.756Z,83.89
2023-09-16T22:34:04.152Z,83.91
2023-09-16T22:36:49.682Z,84.26
2023-09-16T22:39:47.369Z,84.48
2023-09-16T22:42:36.820Z,84.54
2023-09-16T22:45:22.208Z,84.61
2023-09-16T22:48:07.716Z,84.53
2023-09-16T22:50:53.582Z,84.48
2023-09-16T22:53:39.071Z,84.45
2023-09-16T22:56:24.467Z,84.22
2023-09-16T22:59:09.726Z,84.31
2023-09-16T23:01:55.126Z,84.28
2023-09-16T23:04:40.523Z,84.63
2023-09-16T23:07:25.844Z,85.13
2023-09-16T23:10:11.312Z,85.02
2023-09-16T23:12:56.728Z,84.99
2023-09-16T23:15:42.503Z,84.95
2023-09-16T23:18:28.184Z,85.07
2023-09-16T23:21:13.798Z,85.04
2023-09-16T23:23:59.065Z,84.96
2023-09-16T23:26:44.516Z,84.84
2023-09-16T23:29:30.571Z,85.12
2023-09-16T23:32:15.691Z,85.28
2023-09-16T23:35:01.094Z,85.06
2023-09-16T23:37:46.653Z,85.14
2023-09-16T23:40:32.314Z,85.23
2023-09-16T23:43:17.672Z,85.49
2023-09-16T23:46:03.569Z,85.32
2023-09-16T23:48:48.965Z,85.13
2023-09-16T23:51:34.334Z,85.39
2023-09-16T23:54:19.855Z,85.43
2023-09-16T23:57:09.094Z,85.91
2023-09-16T23:59:54.122Z,85.81
